sensor_id;sensor_type;location;lat;lon;timestamp;P1;durP1;ratioP1;P2;durP2;ratioP2
32347;SDS011;18821;44.800;10.326;2023-03-23T00:01:18;3.72;;;2.10;;
32347;SDS011;18821;44.800;10.326;2023-03-23T00:03:46;4.25;;;1.80;;
32347;SDS011;18821;44.800;10.326;2023-03-23T00:06:20;4.10;;;1.80;;
32347;SDS011;18821;44.800;10.326;2023-03-23T00:08:47;5.18;;;2.35;;
32347;SDS011;18821;44.800;10.326;2023-03-23T00:11:19;5.80;;;2.10;;
32347;SDS011;18821;44.800;10.326;2023-03-23T00:13:48;6.88;;;2.70;;
32347;SDS011;18821;44.800;10.326;2023-03-23T00:16:22;4.03;;;2.10;;
32347;SDS011;18821;44.800;10.326;2023-03-23T00:19:18;5.35;;;2.08;;
32347;SDS011;18821;44.800;10.326;2023-03-23T00:21:44;3.55;;;2.40;;
32347;SDS011;18821;44.800;10.326;2023-03-23T00:24:12;5.10;;;2.28;;
32347;SDS011;18821;44.800;10.326;2023-03-23T00:26:46;6.68;;;2.50;;
32347;SDS011;18821;44.800;10.326;2023-03-23T00:29:15;3.88;;;2.10;;
32347;SDS011;18821;44.800;10.326;2023-03-23T00:31:44;3.47;;;2.15;;
32347;SDS011;18821;44.800;10.326;2023-03-23T00:34:14;4.75;;;2.30;;
32347;SDS011;18821;44.800;10.326;2023-03-23T00:36:44;7.57;;;2.33;;
32347;SDS011;18821;44.800;10.326;2023-03-23T00:39:15;4.55;;;2.30;;
32347;SDS011;18821;44.800;10.326;2023-03-23T00:41:46;3.45;;;2.42;;
32347;SDS011;18821;44.800;10.326;2023-03-23T00:44:13;4.78;;;2.05;;
32347;SDS011;18821;44.800;10.326;2023-03-23T00:46:44;4.32;;;2.00;;
32347;SDS011;18821;44.800;10.326;2023-03-23T00:49:12;5.55;;;2.20;;
32347;SDS011;18821;44.800;10.326;2023-03-23T00:51:39;5.60;;;2.42;;
32347;SDS011;18821;44.800;10.326;2023-03-23T00:54:07;4.38;;;1.98;;
32347;SDS011;18821;44.800;10.326;2023-03-23T00:56:34;6.20;;;2.20;;
32347;SDS011;18821;44.800;10.326;2023-03-23T00:59:01;8.07;;;2.40;;
32347;SDS011;18821;44.800;10.326;2023-03-23T01:01:27;3.30;;;1.67;;
32347;SDS011;18821;44.800;10.326;2023-03-23T01:03:57;4.40;;;2.25;;
32347;SDS011;18821;44.800;10.326;2023-03-23T01:06:29;3.63;;;1.52;;
32347;SDS011;18821;44.800;10.326;2023-03-23T01:08:57;3.13;;;1.90;;
32347;SDS011;18821;44.800;10.326;2023-03-23T01:11:24;4.28;;;1.73;;
32347;SDS011;18821;44.800;10.326;2023-03-23T01:13:51;6.18;;;1.58;;
32347;SDS011;18821;44.800;10.326;2023-03-23T01:16:19;4.45;;;1.90;;
32347;SDS011;18821;44.800;10.326;2023-03-23T01:18:45;6.68;;;1.85;;
32347;SDS011;18821;44.800;10.326;2023-03-23T01:21:13;4.85;;;1.88;;
32347;SDS011;18821;44.800;10.326;2023-03-23T01:23:41;4.57;;;1.50;;
32347;SDS011;18821;44.800;10.326;2023-03-23T01:26:09;3.45;;;1.70;;
32347;SDS011;18821;44.800;10.326;2023-03-23T01:28:37;6.40;;;1.70;;
32347;SDS011;18821;44.800;10.326;2023-03-23T01:31:04;4.15;;;1.52;;
32347;SDS011;18821;44.800;10.326;2023-03-23T01:33:34;4.43;;;1.60;;
32347;SDS011;18821;44.800;10.326;2023-03-23T01:36:04;2.20;;;1.50;;
32347;SDS011;18821;44.800;10.326;2023-03-23T01:38:33;3.20;;;1.73;;
32347;SDS011;18821;44.800;10.326;2023-03-23T01:41:00;3.42;;;1.95;;
32347;SDS011;18821;44.800;10.326;2023-03-23T01:43:26;4.97;;;1.90;;
32347;SDS011;18821;44.800;10.326;2023-03-23T01:45:52;6.43;;;1.80;;
32347;SDS011;18821;44.800;10.326;2023-03-23T01:48:23;6.15;;;1.90;;
32347;SDS011;18821;44.800;10.326;2023-03-23T01:51:03;7.10;;;1.85;;
32347;SDS011;18821;44.800;10.326;2023-03-23T01:53:40;4.05;;;2.08;;
32347;SDS011;18821;44.800;10.326;2023-03-23T01:56:10;5.35;;;2.20;;
32347;SDS011;18821;44.800;10.326;2023-03-23T01:58:39;2.72;;;1.83;;
32347;SDS011;18821;44.800;10.326;2023-03-23T02:01:07;3.72;;;1.80;;
32347;SDS011;18821;44.800;10.326;2023-03-23T02:03:37;3.53;;;2.33;;
32347;SDS011;18821;44.800;10.326;2023-03-23T02:06:07;4.10;;;2.28;;
32347;SDS011;18821;44.800;10.326;2023-03-23T02:08:44;4.32;;;2.08;;
32347;SDS011;18821;44.800;10.326;2023-03-23T02:11:17;3.88;;;2.08;;
32347;SDS011;18821;44.800;10.326;2023-03-23T02:13:44;6.35;;;2.47;;
32347;SDS011;18821;44.800;10.326;2023-03-23T02:26:55;7.28;;;2.33;;
32347;SDS011;18821;44.800;10.326;2023-03-23T02:34:52;10.48;;;2.85;;
32347;SDS011;18821;44.800;10.326;2023-03-23T02:37:36;2.70;;;2.00;;
32347;SDS011;18821;44.800;10.326;2023-03-23T02:40:07;4.73;;;2.30;;
32347;SDS011;18821;44.800;10.326;2023-03-23T02:42:41;6.53;;;2.80;;
32347;SDS011;18821;44.800;10.326;2023-03-23T02:45:11;3.38;;;2.30;;
32347;SDS011;18821;44.800;10.326;2023-03-23T02:47:41;6.28;;;2.20;;
32347;SDS011;18821;44.800;10.326;2023-03-23T02:50:08;7.45;;;2.80;;
32347;SDS011;18821;44.800;10.326;2023-03-23T02:52:39;5.38;;;2.80;;
32347;SDS011;18821;44.800;10.326;2023-03-23T02:55:06;4.63;;;2.35;;
32347;SDS011;18821;44.800;10.326;2023-03-23T02:57:33;3.95;;;2.40;;
32347;SDS011;18821;44.800;10.326;2023-03-23T03:00:03;3.38;;;2.60;;
32347;SDS011;18821;44.800;10.326;2023-03-23T03:02:36;4.72;;;2.55;;
32347;SDS011;18821;44.800;10.326;2023-03-23T03:10:43;3.22;;;2.22;;
32347;SDS011;18821;44.800;10.326;2023-03-23T03:19:09;3.65;;;1.83;;
32347;SDS011;18821;44.800;10.326;2023-03-23T03:21:45;7.07;;;2.30;;
32347;SDS011;18821;44.800;10.326;2023-03-23T03:24:17;5.88;;;2.85;;
32347;SDS011;18821;44.800;10.326;2023-03-23T03:26:50;3.20;;;2.00;;
32347;SDS011;18821;44.800;10.326;2023-03-23T03:29:27;2.80;;;1.63;;
32347;SDS011;18821;44.800;10.326;2023-03-23T03:31:59;4.60;;;2.00;;
32347;SDS011;18821;44.800;10.326;2023-03-23T03:34:30;3.15;;;1.90;;
32347;SDS011;18821;44.800;10.326;2023-03-23T03:36:58;4.82;;;2.35;;
32347;SDS011;18821;44.800;10.326;2023-03-23T03:39:25;7.25;;;2.65;;
32347;SDS011;18821;44.800;10.326;2023-03-23T03:41:52;9.10;;;3.00;;
32347;SDS011;18821;44.800;10.326;2023-03-23T03:44:20;8.73;;;3.33;;
32347;SDS011;18821;44.800;10.326;2023-03-23T03:46:46;13.30;;;4.82;;
32347;SDS011;18821;44.800;10.326;2023-03-23T03:49:12;12.07;;;6.10;;
32347;SDS011;18821;44.800;10.326;2023-03-23T03:51:40;13.50;;;6.60;;
32347;SDS011;18821;44.800;10.326;2023-03-23T03:54:12;15.27;;;7.03;;
32347;SDS011;18821;44.800;10.326;2023-03-23T03:56:38;13.57;;;6.60;;
32347;SDS011;18821;44.800;10.326;2023-03-23T03:59:32;13.73;;;6.35;;
32347;SDS011;18821;44.800;10.326;2023-03-23T04:02:16;16.13;;;7.70;;
32347;SDS011;18821;44.800;10.326;2023-03-23T04:04:46;16.05;;;7.40;;
32347;SDS011;18821;44.800;10.326;2023-03-23T04:07:13;23.50;;;8.93;;
32347;SDS011;18821;44.800;10.326;2023-03-23T04:09:45;18.95;;;8.30;;
32347;SDS011;18821;44.800;10.326;2023-03-23T04:12:14;19.92;;;9.00;;
32347;SDS011;18821;44.800;10.326;2023-03-23T04:14:56;19.83;;;8.77;;
32347;SDS011;18821;44.800;10.326;2023-03-23T04:17:27;16.90;;;8.18;;
32347;SDS011;18821;44.800;10.326;2023-03-23T04:19:54;23.48;;;9.55;;
32347;SDS011;18821;44.800;10.326;2023-03-23T04:22:24;23.27;;;9.00;;
32347;SDS011;18821;44.800;10.326;2023-03-23T04:24:56;17.98;;;8.50;;
32347;SDS011;18821;44.800;10.326;2023-03-23T04:27:27;18.38;;;8.52;;
32347;SDS011;18821;44.800;10.326;2023-03-23T04:29:56;23.58;;;9.23;;
32347;SDS011;18821;44.800;10.326;2023-03-23T04:32:33;22.85;;;9.70;;
32347;SDS011;18821;44.800;10.326;2023-03-23T04:34:59;25.08;;;9.65;;
32347;SDS011;18821;44.800;10.326;2023-03-23T04:37:33;19.02;;;9.02;;
32347;SDS011;18821;44.800;10.326;2023-03-23T04:40:02;23.35;;;10.57;;
32347;SDS011;18821;44.800;10.326;2023-03-23T04:42:38;25.23;;;9.50;;
32347;SDS011;18821;44.800;10.326;2023-03-23T04:45:39;31.83;;;11.10;;
32347;SDS011;18821;44.800;10.326;2023-03-23T04:48:08;22.02;;;11.15;;
32347;SDS011;18821;44.800;10.326;2023-03-23T04:50:43;25.50;;;12.10;;
32347;SDS011;18821;44.800;10.326;2023-03-23T04:53:20;29.75;;;13.32;;
32347;SDS011;18821;44.800;10.326;2023-03-23T04:55:47;26.13;;;12.55;;
32347;SDS011;18821;44.800;10.326;2023-03-23T04:58:15;25.73;;;13.52;;
32347;SDS011;18821;44.800;10.326;2023-03-23T05:01:11;22.63;;;11.38;;
32347;SDS011;18821;44.800;10.326;2023-03-23T05:03:50;22.77;;;11.93;;
32347;SDS011;18821;44.800;10.326;2023-03-23T05:06:16;23.20;;;12.23;;
32347;SDS011;18821;44.800;10.326;2023-03-23T05:08:45;26.02;;;12.60;;
32347;SDS011;18821;44.800;10.326;2023-03-23T05:11:11;25.75;;;12.50;;
32347;SDS011;18821;44.800;10.326;2023-03-23T05:13:40;26.67;;;11.68;;
32347;SDS011;18821;44.800;10.326;2023-03-23T05:16:08;23.27;;;12.18;;
32347;SDS011;18821;44.800;10.326;2023-03-23T05:18:37;22.58;;;11.27;;
32347;SDS011;18821;44.800;10.326;2023-03-23T05:21:06;22.73;;;11.80;;
32347;SDS011;18821;44.800;10.326;2023-03-23T05:23:35;25.27;;;11.43;;
32347;SDS011;18821;44.800;10.326;2023-03-23T05:26:11;23.73;;;11.35;;
32347;SDS011;18821;44.800;10.326;2023-03-23T05:28:37;23.38;;;11.48;;
32347;SDS011;18821;44.800;10.326;2023-03-23T05:31:11;23.43;;;12.17;;
32347;SDS011;18821;44.800;10.326;2023-03-23T05:33:38;27.60;;;12.15;;
32347;SDS011;18821;44.800;10.326;2023-03-23T05:36:22;28.65;;;12.00;;
32347;SDS011;18821;44.800;10.326;2023-03-23T05:39:07;23.73;;;11.70;;
32347;SDS011;18821;44.800;10.326;2023-03-23T05:42:04;22.33;;;11.23;;
32347;SDS011;18821;44.800;10.326;2023-03-23T05:44:49;28.05;;;11.95;;
32347;SDS011;18821;44.800;10.326;2023-03-23T05:47:16;23.85;;;11.63;;
32347;SDS011;18821;44.800;10.326;2023-03-23T05:49:48;20.13;;;11.45;;
32347;SDS011;18821;44.800;10.326;2023-03-23T05:52:17;26.05;;;10.10;;
32347;SDS011;18821;44.800;10.326;2023-03-23T05:54:45;19.52;;;9.35;;
32347;SDS011;18821;44.800;10.326;2023-03-23T05:57:12;17.98;;;9.98;;
32347;SDS011;18821;44.800;10.326;2023-03-23T05:59:51;22.55;;;10.13;;
32347;SDS011;18821;44.800;10.326;2023-03-23T06:02:21;22.48;;;10.75;;
32347;SDS011;18821;44.800;10.326;2023-03-23T06:04:50;21.90;;;10.35;;
32347;SDS011;18821;44.800;10.326;2023-03-23T06:07:26;22.90;;;10.48;;
32347;SDS011;18821;44.800;10.326;2023-03-23T06:09:59;21.63;;;9.82;;
32347;SDS011;18821;44.800;10.326;2023-03-23T06:12:25;21.60;;;10.05;;
32347;SDS011;18821;44.800;10.326;2023-03-23T06:15:04;18.83;;;10.40;;
32347;SDS011;18821;44.800;10.326;2023-03-23T06:17:50;20.65;;;11.00;;
32347;SDS011;18821;44.800;10.326;2023-03-23T06:20:22;23.35;;;10.80;;
32347;SDS011;18821;44.800;10.326;2023-03-23T06:22:51;22.90;;;11.43;;
32347;SDS011;18821;44.800;10.326;2023-03-23T06:25:30;25.83;;;10.95;;
32347;SDS011;18821;44.800;10.326;2023-03-23T06:27:57;20.13;;;11.02;;
32347;SDS011;18821;44.800;10.326;2023-03-23T06:30:24;20.75;;;10.60;;
32347;SDS011;18821;44.800;10.326;2023-03-23T06:32:51;27.88;;;12.05;;
32347;SDS011;18821;44.800;10.326;2023-03-23T06:35:28;21.98;;;11.88;;
32347;SDS011;18821;44.800;10.326;2023-03-23T06:38:17;24.88;;;12.00;;
32347;SDS011;18821;44.800;10.326;2023-03-23T06:40:53;24.63;;;12.70;;
32347;SDS011;18821;44.800;10.326;2023-03-23T06:43:21;28.33;;;11.55;;
32347;SDS011;18821;44.800;10.326;2023-03-23T06:45:58;30.83;;;10.52;;
32347;SDS011;18821;44.800;10.326;2023-03-23T06:48:25;21.50;;;10.65;;
32347;SDS011;18821;44.800;10.326;2023-03-23T06:50:51;27.30;;;10.48;;
32347;SDS011;18821;44.800;10.326;2023-03-23T06:53:19;32.45;;;10.52;;
32347;SDS011;18821;44.800;10.326;2023-03-23T06:55:50;18.45;;;9.23;;
32347;SDS011;18821;44.800;10.326;2023-03-23T06:58:16;18.00;;;9.68;;
32347;SDS011;18821;44.800;10.326;2023-03-23T07:00:42;19.23;;;8.70;;
32347;SDS011;18821;44.800;10.326;2023-03-23T07:03:12;20.85;;;9.43;;
32347;SDS011;18821;44.800;10.326;2023-03-23T07:05:38;18.50;;;8.43;;
32347;SDS011;18821;44.800;10.326;2023-03-23T07:08:05;16.70;;;9.38;;
32347;SDS011;18821;44.800;10.326;2023-03-23T07:10:39;19.40;;;9.48;;
32347;SDS011;18821;44.800;10.326;2023-03-23T07:13:07;20.35;;;9.73;;
32347;SDS011;18821;44.800;10.326;2023-03-23T07:15:44;19.95;;;9.00;;
32347;SDS011;18821;44.800;10.326;2023-03-23T07:18:10;20.88;;;9.63;;
32347;SDS011;18821;44.800;10.326;2023-03-23T07:20:42;19.65;;;8.70;;
32347;SDS011;18821;44.800;10.326;2023-03-23T07:23:08;21.80;;;9.80;;
32347;SDS011;18821;44.800;10.326;2023-03-23T07:26:00;23.55;;;9.40;;
32347;SDS011;18821;44.800;10.326;2023-03-23T07:28:33;22.02;;;9.13;;
32347;SDS011;18821;44.800;10.326;2023-03-23T07:31:07;31.70;;;10.67;;
32347;SDS011;18821;44.800;10.326;2023-03-23T07:33:35;32.42;;;10.75;;
32347;SDS011;18821;44.800;10.326;2023-03-23T07:36:02;23.50;;;10.57;;
32347;SDS011;18821;44.800;10.326;2023-03-23T07:38:29;23.45;;;10.52;;
32347;SDS011;18821;44.800;10.326;2023-03-23T07:40:57;24.40;;;11.77;;
32347;SDS011;18821;44.800;10.326;2023-03-23T07:43:24;25.27;;;11.10;;
32347;SDS011;18821;44.800;10.326;2023-03-23T07:46:02;24.70;;;11.88;;
32347;SDS011;18821;44.800;10.326;2023-03-23T07:48:44;23.35;;;12.55;;
32347;SDS011;18821;44.800;10.326;2023-03-23T07:51:10;27.60;;;12.27;;
32347;SDS011;18821;44.800;10.326;2023-03-23T07:53:37;26.17;;;12.95;;
32347;SDS011;18821;44.800;10.326;2023-03-23T07:56:20;24.58;;;12.20;;
32347;SDS011;18821;44.800;10.326;2023-03-23T07:59:07;23.50;;;11.88;;
32347;SDS011;18821;44.800;10.326;2023-03-23T08:01:36;26.27;;;12.93;;
32347;SDS011;18821;44.800;10.326;2023-03-23T08:04:40;23.23;;;11.57;;
32347;SDS011;18821;44.800;10.326;2023-03-23T08:07:10;28.38;;;11.73;;
32347;SDS011;18821;44.800;10.326;2023-03-23T08:10:03;27.70;;;12.23;;
32347;SDS011;18821;44.800;10.326;2023-03-23T08:12:54;23.95;;;11.65;;
32347;SDS011;18821;44.800;10.326;2023-03-23T08:15:53;23.05;;;11.07;;
32347;SDS011;18821;44.800;10.326;2023-03-23T08:18:37;22.15;;;11.15;;
32347;SDS011;18821;44.800;10.326;2023-03-23T08:21:04;21.67;;;11.68;;
32347;SDS011;18821;44.800;10.326;2023-03-23T08:23:59;17.88;;;9.55;;
32347;SDS011;18821;44.800;10.326;2023-03-23T08:26:44;20.70;;;9.88;;
32347;SDS011;18821;44.800;10.326;2023-03-23T08:29:28;20.30;;;11.07;;
32347;SDS011;18821;44.800;10.326;2023-03-23T08:32:08;21.75;;;11.55;;
32347;SDS011;18821;44.800;10.326;2023-03-23T08:35:07;19.08;;;9.50;;
32347;SDS011;18821;44.800;10.326;2023-03-23T08:37:58;21.33;;;11.50;;
32347;SDS011;18821;44.800;10.326;2023-03-23T08:40:51;17.98;;;10.60;;
32347;SDS011;18821;44.800;10.326;2023-03-23T08:43:39;21.23;;;11.15;;
32347;SDS011;18821;44.800;10.326;2023-03-23T08:46:37;21.65;;;11.95;;
32347;SDS011;18821;44.800;10.326;2023-03-23T08:49:14;20.95;;;12.05;;
32347;SDS011;18821;44.800;10.326;2023-03-23T08:52:10;20.27;;;11.38;;
32347;SDS011;18821;44.800;10.326;2023-03-23T08:54:50;19.05;;;11.00;;
32347;SDS011;18821;44.800;10.326;2023-03-23T08:57:45;15.18;;;9.30;;
32347;SDS011;18821;44.800;10.326;2023-03-23T09:00:37;20.45;;;10.43;;
32347;SDS011;18821;44.800;10.326;2023-03-23T09:03:17;17.52;;;11.15;;
32347;SDS011;18821;44.800;10.326;2023-03-23T09:06:02;20.23;;;11.27;;
32347;SDS011;18821;44.800;10.326;2023-03-23T09:08:57;24.55;;;11.13;;
32347;SDS011;18821;44.800;10.326;2023-03-23T09:11:25;19.77;;;10.55;;
32347;SDS011;18821;44.800;10.326;2023-03-23T09:13:52;17.90;;;11.18;;
32347;SDS011;18821;44.800;10.326;2023-03-23T09:16:18;18.60;;;11.18;;
32347;SDS011;18821;44.800;10.326;2023-03-23T09:18:45;20.08;;;10.82;;
32347;SDS011;18821;44.800;10.326;2023-03-23T09:21:11;12.13;;;7.53;;
32347;SDS011;18821;44.800;10.326;2023-03-23T09:23:41;16.50;;;9.10;;
32347;SDS011;18821;44.800;10.326;2023-03-23T09:26:09;13.63;;;8.38;;
32347;SDS011;18821;44.800;10.326;2023-03-23T09:28:35;15.35;;;9.55;;
32347;SDS011;18821;44.800;10.326;2023-03-23T09:31:01;14.50;;;9.13;;
32347;SDS011;18821;44.800;10.326;2023-03-23T09:33:27;20.05;;;10.05;;
32347;SDS011;18821;44.800;10.326;2023-03-23T09:35:58;19.42;;;12.13;;
32347;SDS011;18821;44.800;10.326;2023-03-23T09:38:24;17.35;;;10.50;;
32347;SDS011;18821;44.800;10.326;2023-03-23T09:43:38;17.45;;;10.50;;
32347;SDS011;18821;44.800;10.326;2023-03-23T09:49:17;13.63;;;8.50;;
32347;SDS011;18821;44.800;10.326;2023-03-23T09:56:53;14.77;;;9.40;;
32347;SDS011;18821;44.800;10.326;2023-03-23T10:01:57;17.60;;;9.98;;
32347;SDS011;18821;44.800;10.326;2023-03-23T10:04:38;15.45;;;9.45;;
32347;SDS011;18821;44.800;10.326;2023-03-23T10:07:19;12.75;;;8.65;;
32347;SDS011;18821;44.800;10.326;2023-03-23T10:09:49;18.70;;;9.20;;
32347;SDS011;18821;44.800;10.326;2023-03-23T10:14:50;14.98;;;9.90;;
32347;SDS011;18821;44.800;10.326;2023-03-23T10:17:42;16.50;;;9.90;;
32347;SDS011;18821;44.800;10.326;2023-03-23T10:22:52;15.85;;;12.02;;
32347;SDS011;18821;44.800;10.326;2023-03-23T10:25:32;17.52;;;11.07;;
32347;SDS011;18821;44.800;10.326;2023-03-23T10:30:33;17.40;;;11.27;;
32347;SDS011;18821;44.800;10.326;2023-03-23T10:33:22;20.50;;;11.15;;
32347;SDS011;18821;44.800;10.326;2023-03-23T10:38:34;17.30;;;9.45;;
32347;SDS011;18821;44.800;10.326;2023-03-23T10:41:04;14.85;;;8.55;;
32347;SDS011;18821;44.800;10.326;2023-03-23T10:43:37;15.60;;;9.27;;
32347;SDS011;18821;44.800;10.326;2023-03-23T10:46:14;14.10;;;9.07;;
32347;SDS011;18821;44.800;10.326;2023-03-23T10:48:43;19.73;;;10.30;;
32347;SDS011;18821;44.800;10.326;2023-03-23T10:51:11;13.50;;;9.43;;
32347;SDS011;18821;44.800;10.326;2023-03-23T10:53:42;14.20;;;9.18;;
32347;SDS011;18821;44.800;10.326;2023-03-23T10:56:21;12.30;;;7.97;;
32347;SDS011;18821;44.800;10.326;2023-03-23T10:58:53;15.57;;;10.32;;
32347;SDS011;18821;44.800;10.326;2023-03-23T11:01:31;25.67;;;10.45;;
32347;SDS011;18821;44.800;10.326;2023-03-23T11:03:58;12.52;;;9.02;;
32347;SDS011;18821;44.800;10.326;2023-03-23T11:06:26;15.40;;;9.48;;
32347;SDS011;18821;44.800;10.326;2023-03-23T11:08:58;18.70;;;10.77;;
32347;SDS011;18821;44.800;10.326;2023-03-23T11:11:30;12.93;;;8.63;;
32347;SDS011;18821;44.800;10.326;2023-03-23T11:14:01;14.90;;;8.85;;
32347;SDS011;18821;44.800;10.326;2023-03-23T11:16:44;13.75;;;8.35;;
32347;SDS011;18821;44.800;10.326;2023-03-23T11:19:24;16.90;;;8.77;;
32347;SDS011;18821;44.800;10.326;2023-03-23T11:21:53;15.50;;;9.38;;
32347;SDS011;18821;44.800;10.326;2023-03-23T11:24:25;12.90;;;8.60;;
32347;SDS011;18821;44.800;10.326;2023-03-23T11:26:52;12.18;;;7.80;;
32347;SDS011;18821;44.800;10.326;2023-03-23T11:29:23;20.33;;;8.57;;
32347;SDS011;18821;44.800;10.326;2023-03-23T11:31:52;14.57;;;9.88;;
32347;SDS011;18821;44.800;10.326;2023-03-23T11:34:26;15.27;;;9.05;;
32347;SDS011;18821;44.800;10.326;2023-03-23T11:37:02;15.48;;;8.70;;
32347;SDS011;18821;44.800;10.326;2023-03-23T11:40:42;14.23;;;8.13;;
32347;SDS011;18821;44.800;10.326;2023-03-23T11:42:43;16.73;;;8.77;;
32347;SDS011;18821;44.800;10.326;2023-03-23T11:45:38;14.35;;;8.57;;
32347;SDS011;18821;44.800;10.326;2023-03-23T11:51:08;16.70;;;9.40;;
32347;SDS011;18821;44.800;10.326;2023-03-23T11:53:45;15.50;;;9.63;;
32347;SDS011;18821;44.800;10.326;2023-03-23T11:56:25;13.18;;;8.60;;
32347;SDS011;18821;44.800;10.326;2023-03-23T11:58:58;14.80;;;9.68;;
32347;SDS011;18821;44.800;10.326;2023-03-23T12:20:37;19.23;;;9.85;;
32347;SDS011;18821;44.800;10.326;2023-03-23T12:23:24;13.13;;;9.48;;
32347;SDS011;18821;44.800;10.326;2023-03-23T12:37:04;22.17;;;9.02;;
32347;SDS011;18821;44.800;10.326;2023-03-23T12:45:21;14.43;;;10.18;;
32347;SDS011;18821;44.800;10.326;2023-03-23T12:48:04;17.63;;;10.10;;
32347;SDS011;18821;44.800;10.326;2023-03-23T12:50:42;16.08;;;9.70;;
32347;SDS011;18821;44.800;10.326;2023-03-23T12:53:29;16.73;;;9.70;;
32347;SDS011;18821;44.800;10.326;2023-03-23T12:58:31;15.77;;;10.70;;
32347;SDS011;18821;44.800;10.326;2023-03-23T13:01:05;16.75;;;9.70;;
32347;SDS011;18821;44.800;10.326;2023-03-23T13:06:16;22.85;;;14.40;;
32347;SDS011;18821;44.800;10.326;2023-03-23T13:09:18;13.57;;;8.95;;
32347;SDS011;18821;44.800;10.326;2023-03-23T13:11:48;17.95;;;9.27;;
32347;SDS011;18821;44.800;10.326;2023-03-23T13:14:24;14.70;;;9.60;;
32347;SDS011;18821;44.800;10.326;2023-03-23T13:23:20;16.42;;;9.70;;
32347;SDS011;18821;44.800;10.326;2023-03-23T13:25:49;21.15;;;13.88;;
32347;SDS011;18821;44.800;10.326;2023-03-23T13:28:19;17.25;;;10.07;;
32347;SDS011;18821;44.800;10.326;2023-03-23T13:33:32;17.50;;;10.38;;
32347;SDS011;18821;44.800;10.326;2023-03-23T13:36:02;18.00;;;9.88;;
32347;SDS011;18821;44.800;10.326;2023-03-23T13:38:34;16.15;;;9.85;;
32347;SDS011;18821;44.800;10.326;2023-03-23T13:41:08;18.23;;;10.88;;
32347;SDS011;18821;44.800;10.326;2023-03-23T13:43:37;13.30;;;9.30;;
32347;SDS011;18821;44.800;10.326;2023-03-23T13:51:34;16.63;;;10.55;;
32347;SDS011;18821;44.800;10.326;2023-03-23T13:54:12;15.25;;;8.93;;
32347;SDS011;18821;44.800;10.326;2023-03-23T14:01:52;22.38;;;9.98;;
32347;SDS011;18821;44.800;10.326;2023-03-23T14:04:23;23.35;;;10.48;;
32347;SDS011;18821;44.800;10.326;2023-03-23T14:07:08;13.57;;;8.75;;
32347;SDS011;18821;44.800;10.326;2023-03-23T14:09:38;13.70;;;9.00;;
32347;SDS011;18821;44.800;10.326;2023-03-23T14:19:46;15.80;;;9.88;;
32347;SDS011;18821;44.800;10.326;2023-03-23T14:24:50;17.80;;;10.00;;
32347;SDS011;18821;44.800;10.326;2023-03-23T14:27:21;17.10;;;10.05;;
32347;SDS011;18821;44.800;10.326;2023-03-23T14:29:58;15.23;;;10.00;;
32347;SDS011;18821;44.800;10.326;2023-03-23T14:32:27;19.13;;;13.25;;
32347;SDS011;18821;44.800;10.326;2023-03-23T14:34:55;21.13;;;12.95;;
32347;SDS011;18821;44.800;10.326;2023-03-23T14:37:21;23.13;;;13.65;;
32347;SDS011;18821;44.800;10.326;2023-03-23T14:39:48;22.10;;;13.98;;
32347;SDS011;18821;44.800;10.326;2023-03-23T14:42:18;23.27;;;12.45;;
32347;SDS011;18821;44.800;10.326;2023-03-23T14:44:48;26.58;;;14.40;;
32347;SDS011;18821;44.800;10.326;2023-03-23T14:47:22;22.73;;;14.82;;
32347;SDS011;18821;44.800;10.326;2023-03-23T14:49:58;27.30;;;13.52;;
32347;SDS011;18821;44.800;10.326;2023-03-23T14:52:27;21.45;;;13.60;;
32347;SDS011;18821;44.800;10.326;2023-03-23T14:54:54;24.65;;;14.18;;
32347;SDS011;18821;44.800;10.326;2023-03-23T14:59:50;22.95;;;14.10;;
32347;SDS011;18821;44.800;10.326;2023-03-23T15:02:24;26.30;;;13.80;;
32347;SDS011;18821;44.800;10.326;2023-03-23T15:04:53;20.65;;;13.50;;
32347;SDS011;18821;44.800;10.326;2023-03-23T15:07:24;22.10;;;13.00;;
32347;SDS011;18821;44.800;10.326;2023-03-23T15:09:55;26.98;;;13.70;;
32347;SDS011;18821;44.800;10.326;2023-03-23T15:12:25;24.73;;;14.30;;
32347;SDS011;18821;44.800;10.326;2023-03-23T15:15:04;22.45;;;13.85;;
32347;SDS011;18821;44.800;10.326;2023-03-23T15:17:34;24.65;;;12.18;;
32347;SDS011;18821;44.800;10.326;2023-03-23T15:23:22;23.27;;;13.13;;
32347;SDS011;18821;44.800;10.326;2023-03-23T15:28:21;22.05;;;13.82;;
32347;SDS011;18821;44.800;10.326;2023-03-23T15:30:54;22.13;;;13.65;;
32347;SDS011;18821;44.800;10.326;2023-03-23T15:33:24;21.92;;;13.48;;
32347;SDS011;18821;44.800;10.326;2023-03-23T15:35:55;29.88;;;15.25;;
32347;SDS011;18821;44.800;10.326;2023-03-23T15:38:26;22.38;;;12.93;;
32347;SDS011;18821;44.800;10.326;2023-03-23T15:40:56;21.63;;;12.73;;
32347;SDS011;18821;44.800;10.326;2023-03-23T15:43:31;31.33;;;13.43;;
32347;SDS011;18821;44.800;10.326;2023-03-23T15:48:47;22.38;;;13.48;;
32347;SDS011;18821;44.800;10.326;2023-03-23T15:51:20;22.35;;;13.07;;
32347;SDS011;18821;44.800;10.326;2023-03-23T15:53:52;22.27;;;12.80;;
32347;SDS011;18821;44.800;10.326;2023-03-23T15:56:20;24.92;;;12.73;;
32347;SDS011;18821;44.800;10.326;2023-03-23T15:58:47;22.10;;;12.38;;
32347;SDS011;18821;44.800;10.326;2023-03-23T16:01:14;20.17;;;12.57;;
32347;SDS011;18821;44.800;10.326;2023-03-23T16:03:53;21.48;;;11.98;;
32347;SDS011;18821;44.800;10.326;2023-03-23T16:06:29;23.27;;;12.57;;
32347;SDS011;18821;44.800;10.326;2023-03-23T16:08:57;19.27;;;11.43;;
32347;SDS011;18821;44.800;10.326;2023-03-23T16:11:24;26.38;;;12.30;;
32347;SDS011;18821;44.800;10.326;2023-03-23T16:13:53;20.05;;;12.15;;
32347;SDS011;18821;44.800;10.326;2023-03-23T16:16:21;23.15;;;12.20;;
32347;SDS011;18821;44.800;10.326;2023-03-23T16:18:47;23.58;;;12.38;;
32347;SDS011;18821;44.800;10.326;2023-03-23T16:21:14;26.15;;;12.05;;
32347;SDS011;18821;44.800;10.326;2023-03-23T16:23:39;24.80;;;12.13;;
32347;SDS011;18821;44.800;10.326;2023-03-23T16:26:08;23.00;;;13.00;;
32347;SDS011;18821;44.800;10.326;2023-03-23T16:28:35;25.40;;;12.70;;
32347;SDS011;18821;44.800;10.326;2023-03-23T16:31:01;24.27;;;13.02;;
32347;SDS011;18821;44.800;10.326;2023-03-23T16:33:27;22.70;;;12.88;;
32347;SDS011;18821;44.800;10.326;2023-03-23T16:35:53;26.65;;;12.75;;
32347;SDS011;18821;44.800;10.326;2023-03-23T16:38:19;23.63;;;13.32;;
32347;SDS011;18821;44.800;10.326;2023-03-23T16:40:45;25.92;;;13.10;;
32347;SDS011;18821;44.800;10.326;2023-03-23T16:43:11;24.92;;;13.32;;
32347;SDS011;18821;44.800;10.326;2023-03-23T16:45:38;24.88;;;12.88;;
32347;SDS011;18821;44.800;10.326;2023-03-23T16:48:06;27.40;;;13.18;;
32347;SDS011;18821;44.800;10.326;2023-03-23T16:50:32;24.77;;;14.25;;
32347;SDS011;18821;44.800;10.326;2023-03-23T16:52:59;32.85;;;13.93;;
32347;SDS011;18821;44.800;10.326;2023-03-23T16:55:26;24.70;;;12.65;;
32347;SDS011;18821;44.800;10.326;2023-03-23T16:57:52;24.88;;;12.13;;
32347;SDS011;18821;44.800;10.326;2023-03-23T17:00:20;27.25;;;12.93;;
32347;SDS011;18821;44.800;10.326;2023-03-23T17:02:48;21.50;;;10.80;;
32347;SDS011;18821;44.800;10.326;2023-03-23T17:05:21;24.42;;;11.38;;
32347;SDS011;18821;44.800;10.326;2023-03-23T17:07:50;26.10;;;11.45;;